sensor_id;sensor_type;location;lat;lon;timestamp;P1;durP1;ratioP1;P2;durP2;ratioP2
61317;SDS011;47201;40.428;-8.436;2022-12-18T00:00:43;10.98;;;4.60;;
61317;SDS011;47201;40.428;-8.436;2022-12-18T00:04:44;14.73;;;4.83;;
61317;SDS011;47201;40.428;-8.436;2022-12-18T00:06:45;13.07;;;7.03;;
61317;SDS011;47201;40.428;-8.436;2022-12-18T00:08:46;7.22;;;4.07;;
61317;SDS011;47201;40.428;-8.436;2022-12-18T00:10:47;8.85;;;4.50;;
61317;SDS011;47201;40.428;-8.436;2022-12-18T00:12:48;10.13;;;5.18;;
61317;SDS011;47201;40.428;-8.436;2022-12-18T00:14:49;10.63;;;5.43;;
61317;SDS011;47201;40.428;-8.436;2022-12-18T00:16:49;10.43;;;4.13;;
61317;SDS011;47201;40.428;-8.436;2022-12-18T00:18:51;6.68;;;3.72;;
61317;SDS011;47201;40.428;-8.436;2022-12-18T00:20:54;9.75;;;3.78;;
61317;SDS011;47201;40.428;-8.436;2022-12-18T00:23:00;9.30;;;4.35;;
61317;SDS011;47201;40.428;-8.436;2022-12-18T00:25:00;9.18;;;3.85;;
61317;SDS011;47201;40.428;-8.436;2022-12-18T00:27:01;7.78;;;4.80;;
61317;SDS011;47201;40.428;-8.436;2022-12-18T00:29:10;18.17;;;5.13;;
61317;SDS011;47201;40.428;-8.436;2022-12-18T00:35:16;12.40;;;6.00;;
61317;SDS011;47201;40.428;-8.436;2022-12-18T00:37:16;10.32;;;5.40;;
61317;SDS011;47201;40.428;-8.436;2022-12-18T00:39:17;13.13;;;7.18;;
61317;SDS011;47201;40.428;-8.436;2022-12-18T00:41:18;14.52;;;6.25;;
61317;SDS011;47201;40.428;-8.436;2022-12-18T00:43:38;6.95;;;5.00;;
61317;SDS011;47201;40.428;-8.436;2022-12-18T00:45:40;9.93;;;6.03;;
61317;SDS011;47201;40.428;-8.436;2022-12-18T00:47:41;12.77;;;7.68;;
61317;SDS011;47201;40.428;-8.436;2022-12-18T00:49:42;13.40;;;5.75;;
61317;SDS011;47201;40.428;-8.436;2022-12-18T00:51:43;12.02;;;5.35;;
61317;SDS011;47201;40.428;-8.436;2022-12-18T00:55:44;13.93;;;6.33;;
61317;SDS011;47201;40.428;-8.436;2022-12-18T00:59:46;8.70;;;5.93;;
61317;SDS011;47201;40.428;-8.436;2022-12-18T01:01:48;18.75;;;8.63;;
61317;SDS011;47201;40.428;-8.436;2022-12-18T01:03:49;15.48;;;5.47;;
61317;SDS011;47201;40.428;-8.436;2022-12-18T01:05:50;22.67;;;6.53;;
61317;SDS011;47201;40.428;-8.436;2022-12-18T01:07:52;12.82;;;8.32;;
61317;SDS011;47201;40.428;-8.436;2022-12-18T01:09:53;12.02;;;6.22;;
61317;SDS011;47201;40.428;-8.436;2022-12-18T01:11:54;16.00;;;8.95;;
61317;SDS011;47201;40.428;-8.436;2022-12-18T01:13:54;12.77;;;6.70;;
61317;SDS011;47201;40.428;-8.436;2022-12-18T01:17:56;14.10;;;9.77;;
61317;SDS011;47201;40.428;-8.436;2022-12-18T01:20:00;15.52;;;7.75;;
61317;SDS011;47201;40.428;-8.436;2022-12-18T01:22:01;15.10;;;6.90;;
61317;SDS011;47201;40.428;-8.436;2022-12-18T01:24:01;14.93;;;8.35;;
61317;SDS011;47201;40.428;-8.436;2022-12-18T01:26:04;15.18;;;8.55;;
61317;SDS011;47201;40.428;-8.436;2022-12-18T01:28:05;16.85;;;8.38;;
61317;SDS011;47201;40.428;-8.436;2022-12-18T01:30:06;23.48;;;12.57;;
61317;SDS011;47201;40.428;-8.436;2022-12-18T01:32:07;17.30;;;8.20;;
61317;SDS011;47201;40.428;-8.436;2022-12-18T01:34:08;21.25;;;11.93;;
61317;SDS011;47201;40.428;-8.436;2022-12-18T01:36:17;20.50;;;7.60;;
61317;SDS011;47201;40.428;-8.436;2022-12-18T01:38:23;13.85;;;8.52;;
61317;SDS011;47201;40.428;-8.436;2022-12-18T01:40:23;15.65;;;9.05;;
61317;SDS011;47201;40.428;-8.436;2022-12-18T01:42:25;12.75;;;7.70;;
61317;SDS011;47201;40.428;-8.436;2022-12-18T01:46:55;12.18;;;8.02;;
61317;SDS011;47201;40.428;-8.436;2022-12-18T01:48:56;18.10;;;11.88;;
61317;SDS011;47201;40.428;-8.436;2022-12-18T01:51:00;13.27;;;10.95;;
61317;SDS011;47201;40.428;-8.436;2022-12-18T01:53:10;17.10;;;8.27;;
61317;SDS011;47201;40.428;-8.436;2022-12-18T01:55:14;21.55;;;12.35;;
61317;SDS011;47201;40.428;-8.436;2022-12-18T01:57:18;14.43;;;7.53;;
61317;SDS011;47201;40.428;-8.436;2022-12-18T01:59:20;16.50;;;11.13;;
61317;SDS011;47201;40.428;-8.436;2022-12-18T02:01:21;10.88;;;7.90;;
61317;SDS011;47201;40.428;-8.436;2022-12-18T02:03:23;19.08;;;8.15;;
61317;SDS011;47201;40.428;-8.436;2022-12-18T02:10:03;12.48;;;6.90;;
61317;SDS011;47201;40.428;-8.436;2022-12-18T02:12:24;10.65;;;6.68;;
61317;SDS011;47201;40.428;-8.436;2022-12-18T02:17:22;13.27;;;5.82;;
61317;SDS011;47201;40.428;-8.436;2022-12-18T02:24:15;14.75;;;8.60;;
61317;SDS011;47201;40.428;-8.436;2022-12-18T02:26:27;16.30;;;8.80;;
61317;SDS011;47201;40.428;-8.436;2022-12-18T02:28:36;13.35;;;8.70;;
61317;SDS011;47201;40.428;-8.436;2022-12-18T02:30:51;20.30;;;9.60;;
61317;SDS011;47201;40.428;-8.436;2022-12-18T02:32:56;12.80;;;6.30;;
61317;SDS011;47201;40.428;-8.436;2022-12-18T02:34:58;11.95;;;5.88;;
61317;SDS011;47201;40.428;-8.436;2022-12-18T02:37:04;17.73;;;8.70;;
61317;SDS011;47201;40.428;-8.436;2022-12-18T02:39:09;13.65;;;6.65;;
61317;SDS011;47201;40.428;-8.436;2022-12-18T02:41:19;13.95;;;6.25;;
61317;SDS011;47201;40.428;-8.436;2022-12-18T02:43:21;16.73;;;6.50;;
61317;SDS011;47201;40.428;-8.436;2022-12-18T02:45:22;12.20;;;6.05;;
61317;SDS011;47201;40.428;-8.436;2022-12-18T02:47:28;11.63;;;6.03;;
61317;SDS011;47201;40.428;-8.436;2022-12-18T02:52:16;14.25;;;5.25;;
61317;SDS011;47201;40.428;-8.436;2022-12-18T02:56:50;11.75;;;5.55;;
61317;SDS011;47201;40.428;-8.436;2022-12-18T03:03:50;15.65;;;6.57;;
61317;SDS011;47201;40.428;-8.436;2022-12-18T03:08:10;8.88;;;5.22;;
61317;SDS011;47201;40.428;-8.436;2022-12-18T03:12:21;14.15;;;8.15;;
61317;SDS011;47201;40.428;-8.436;2022-12-18T03:14:32;6.97;;;5.05;;
61317;SDS011;47201;40.428;-8.436;2022-12-18T03:16:37;14.23;;;5.70;;
61317;SDS011;47201;40.428;-8.436;2022-12-18T03:18:45;10.48;;;6.05;;
61317;SDS011;47201;40.428;-8.436;2022-12-18T03:20:50;12.65;;;7.80;;
61317;SDS011;47201;40.428;-8.436;2022-12-18T03:22:57;14.40;;;7.97;;
61317;SDS011;47201;40.428;-8.436;2022-12-18T03:25:05;14.43;;;7.60;;
61317;SDS011;47201;40.428;-8.436;2022-12-18T03:27:10;10.82;;;5.63;;
61317;SDS011;47201;40.428;-8.436;2022-12-18T03:29:25;12.23;;;5.93;;
61317;SDS011;47201;40.428;-8.436;2022-12-18T03:32:00;8.75;;;5.32;;
61317;SDS011;47201;40.428;-8.436;2022-12-18T03:34:10;11.40;;;7.60;;
61317;SDS011;47201;40.428;-8.436;2022-12-18T03:36:19;8.93;;;5.35;;
61317;SDS011;47201;40.428;-8.436;2022-12-18T03:38:21;14.88;;;6.70;;
61317;SDS011;47201;40.428;-8.436;2022-12-18T03:40:31;15.10;;;7.93;;
61317;SDS011;47201;40.428;-8.436;2022-12-18T03:42:56;15.13;;;8.45;;
61317;SDS011;47201;40.428;-8.436;2022-12-18T03:47:15;13.80;;;6.05;;
61317;SDS011;47201;40.428;-8.436;2022-12-18T03:49:38;19.35;;;7.30;;
61317;SDS011;47201;40.428;-8.436;2022-12-18T03:52:05;15.82;;;5.97;;
61317;SDS011;47201;40.428;-8.436;2022-12-18T03:54:11;12.05;;;5.80;;
61317;SDS011;47201;40.428;-8.436;2022-12-18T03:56:20;8.75;;;5.63;;
61317;SDS011;47201;40.428;-8.436;2022-12-18T03:58:25;6.85;;;5.10;;
61317;SDS011;47201;40.428;-8.436;2022-12-18T04:00:41;10.90;;;5.22;;
61317;SDS011;47201;40.428;-8.436;2022-12-18T04:02:49;12.18;;;5.93;;
61317;SDS011;47201;40.428;-8.436;2022-12-18T04:04:58;10.80;;;5.95;;
61317;SDS011;47201;40.428;-8.436;2022-12-18T04:07:03;8.20;;;5.40;;
61317;SDS011;47201;40.428;-8.436;2022-12-18T04:09:10;13.35;;;7.88;;
61317;SDS011;47201;40.428;-8.436;2022-12-18T04:11:15;5.93;;;4.85;;
61317;SDS011;47201;40.428;-8.436;2022-12-18T04:13:27;9.35;;;6.82;;
61317;SDS011;47201;40.428;-8.436;2022-12-18T04:15:35;13.15;;;5.57;;
61317;SDS011;47201;40.428;-8.436;2022-12-18T04:17:39;10.82;;;5.65;;
61317;SDS011;47201;40.428;-8.436;2022-12-18T04:19:47;8.93;;;4.72;;
61317;SDS011;47201;40.428;-8.436;2022-12-18T04:21:48;6.13;;;4.75;;
61317;SDS011;47201;40.428;-8.436;2022-12-18T04:23:49;11.55;;;6.03;;
61317;SDS011;47201;40.428;-8.436;2022-12-18T04:25:52;11.15;;;6.53;;
61317;SDS011;47201;40.428;-8.436;2022-12-18T04:28:06;12.18;;;5.32;;
61317;SDS011;47201;40.428;-8.436;2022-12-18T04:30:08;9.75;;;4.38;;
61317;SDS011;47201;40.428;-8.436;2022-12-18T04:34:11;6.75;;;4.85;;
61317;SDS011;47201;40.428;-8.436;2022-12-18T04:36:17;8.45;;;4.70;;
61317;SDS011;47201;40.428;-8.436;2022-12-18T04:38:19;7.50;;;5.53;;
61317;SDS011;47201;40.428;-8.436;2022-12-18T04:40:25;12.90;;;4.20;;
61317;SDS011;47201;40.428;-8.436;2022-12-18T04:42:26;14.60;;;4.53;;
61317;SDS011;47201;40.428;-8.436;2022-12-18T04:44:26;9.43;;;5.60;;
61317;SDS011;47201;40.428;-8.436;2022-12-18T04:46:27;8.30;;;4.28;;
61317;SDS011;47201;40.428;-8.436;2022-12-18T04:48:28;8.68;;;4.90;;
61317;SDS011;47201;40.428;-8.436;2022-12-18T04:50:29;6.88;;;4.20;;
61317;SDS011;47201;40.428;-8.436;2022-12-18T04:54:30;11.50;;;4.80;;
61317;SDS011;47201;40.428;-8.436;2022-12-18T04:56:31;19.17;;;6.47;;
61317;SDS011;47201;40.428;-8.436;2022-12-18T04:58:32;6.43;;;4.07;;
61317;SDS011;47201;40.428;-8.436;2022-12-18T05:00:33;7.25;;;4.45;;
61317;SDS011;47201;40.428;-8.436;2022-12-18T05:02:33;6.25;;;4.60;;
61317;SDS011;47201;40.428;-8.436;2022-12-18T05:04:34;5.05;;;4.00;;
61317;SDS011;47201;40.428;-8.436;2022-12-18T05:06:35;7.95;;;4.75;;
61317;SDS011;47201;40.428;-8.436;2022-12-18T05:08:35;11.60;;;4.53;;
61317;SDS011;47201;40.428;-8.436;2022-12-18T05:10:36;10.45;;;6.40;;
61317;SDS011;47201;40.428;-8.436;2022-12-18T05:12:40;9.27;;;6.55;;
61317;SDS011;47201;40.428;-8.436;2022-12-18T05:14:58;12.57;;;6.97;;
61317;SDS011;47201;40.428;-8.436;2022-12-18T05:16:58;6.07;;;4.35;;
61317;SDS011;47201;40.428;-8.436;2022-12-18T05:18:59;6.43;;;3.88;;
61317;SDS011;47201;40.428;-8.436;2022-12-18T05:21:00;5.28;;;4.13;;
61317;SDS011;47201;40.428;-8.436;2022-12-18T05:23:01;7.13;;;6.32;;
61317;SDS011;47201;40.428;-8.436;2022-12-18T05:25:02;8.48;;;4.30;;
61317;SDS011;47201;40.428;-8.436;2022-12-18T05:27:02;11.13;;;4.18;;
61317;SDS011;47201;40.428;-8.436;2022-12-18T05:29:03;11.48;;;4.78;;
61317;SDS011;47201;40.428;-8.436;2022-12-18T05:31:04;10.93;;;6.43;;
61317;SDS011;47201;40.428;-8.436;2022-12-18T05:33:05;5.50;;;4.13;;
61317;SDS011;47201;40.428;-8.436;2022-12-18T05:35:06;12.32;;;4.47;;
61317;SDS011;47201;40.428;-8.436;2022-12-18T05:37:08;12.00;;;6.22;;
61317;SDS011;47201;40.428;-8.436;2022-12-18T05:39:09;8.75;;;4.40;;
61317;SDS011;47201;40.428;-8.436;2022-12-18T05:41:09;11.00;;;7.53;;
61317;SDS011;47201;40.428;-8.436;2022-12-18T05:43:10;8.50;;;5.43;;
61317;SDS011;47201;40.428;-8.436;2022-12-18T05:45:11;8.15;;;5.63;;
61317;SDS011;47201;40.428;-8.436;2022-12-18T05:47:12;10.50;;;6.28;;
61317;SDS011;47201;40.428;-8.436;2022-12-18T05:49:12;10.60;;;7.53;;
61317;SDS011;47201;40.428;-8.436;2022-12-18T05:51:14;15.10;;;5.95;;
61317;SDS011;47201;40.428;-8.436;2022-12-18T05:53:17;10.88;;;5.07;;
61317;SDS011;47201;40.428;-8.436;2022-12-18T05:55:19;11.55;;;5.70;;
61317;SDS011;47201;40.428;-8.436;2022-12-18T05:57:20;13.60;;;6.30;;
61317;SDS011;47201;40.428;-8.436;2022-12-18T05:59:20;8.98;;;5.57;;
61317;SDS011;47201;40.428;-8.436;2022-12-18T06:01:24;11.77;;;5.68;;
61317;SDS011;47201;40.428;-8.436;2022-12-18T06:03:26;9.10;;;5.70;;
61317;SDS011;47201;40.428;-8.436;2022-12-18T06:05:27;14.25;;;5.72;;
61317;SDS011;47201;40.428;-8.436;2022-12-18T06:07:28;9.23;;;5.07;;
61317;SDS011;47201;40.428;-8.436;2022-12-18T06:09:28;10.05;;;7.38;;
61317;SDS011;47201;40.428;-8.436;2022-12-18T06:11:29;12.50;;;5.90;;
61317;SDS011;47201;40.428;-8.436;2022-12-18T06:13:30;12.00;;;5.15;;
61317;SDS011;47201;40.428;-8.436;2022-12-18T06:15:30;11.45;;;7.50;;
61317;SDS011;47201;40.428;-8.436;2022-12-18T06:17:32;7.85;;;5.00;;
61317;SDS011;47201;40.428;-8.436;2022-12-18T06:19:33;11.27;;;6.85;;
61317;SDS011;47201;40.428;-8.436;2022-12-18T06:21:34;7.57;;;5.47;;
61317;SDS011;47201;40.428;-8.436;2022-12-18T06:23:35;10.57;;;5.07;;
61317;SDS011;47201;40.428;-8.436;2022-12-18T06:25:39;13.82;;;4.88;;
61317;SDS011;47201;40.428;-8.436;2022-12-18T06:27:40;5.25;;;4.45;;
61317;SDS011;47201;40.428;-8.436;2022-12-18T06:29:40;7.30;;;5.25;;
61317;SDS011;47201;40.428;-8.436;2022-12-18T06:31:41;9.93;;;4.95;;
61317;SDS011;47201;40.428;-8.436;2022-12-18T06:33:42;7.57;;;4.25;;
61317;SDS011;47201;40.428;-8.436;2022-12-18T06:35:43;12.50;;;5.38;;
61317;SDS011;47201;40.428;-8.436;2022-12-18T06:37:43;6.35;;;4.85;;
61317;SDS011;47201;40.428;-8.436;2022-12-18T06:39:44;6.32;;;4.43;;
61317;SDS011;47201;40.428;-8.436;2022-12-18T06:41:45;8.80;;;4.28;;
61317;SDS011;47201;40.428;-8.436;2022-12-18T06:43:45;6.95;;;5.07;;
61317;SDS011;47201;40.428;-8.436;2022-12-18T06:45:47;7.72;;;4.47;;
61317;SDS011;47201;40.428;-8.436;2022-12-18T06:47:52;10.50;;;6.13;;
61317;SDS011;47201;40.428;-8.436;2022-12-18T06:51:54;9.93;;;4.67;;
61317;SDS011;47201;40.428;-8.436;2022-12-18T06:53:55;9.15;;;6.53;;
61317;SDS011;47201;40.428;-8.436;2022-12-18T06:55:59;6.27;;;4.13;;
61317;SDS011;47201;40.428;-8.436;2022-12-18T06:58:04;11.18;;;5.05;;
61317;SDS011;47201;40.428;-8.436;2022-12-18T07:00:05;8.40;;;5.30;;
61317;SDS011;47201;40.428;-8.436;2022-12-18T07:02:13;9.98;;;5.28;;
61317;SDS011;47201;40.428;-8.436;2022-12-18T07:04:14;10.00;;;4.68;;
61317;SDS011;47201;40.428;-8.436;2022-12-18T07:06:15;9.52;;;5.28;;
61317;SDS011;47201;40.428;-8.436;2022-12-18T07:08:18;9.27;;;6.18;;
61317;SDS011;47201;40.428;-8.436;2022-12-18T07:10:19;11.23;;;5.05;;
61317;SDS011;47201;40.428;-8.436;2022-12-18T07:12:19;5.83;;;3.90;;
61317;SDS011;47201;40.428;-8.436;2022-12-18T07:14:20;9.23;;;5.93;;
61317;SDS011;47201;40.428;-8.436;2022-12-18T07:16:21;9.80;;;4.93;;
61317;SDS011;47201;40.428;-8.436;2022-12-18T07:20:23;8.37;;;5.33;;
61317;SDS011;47201;40.428;-8.436;2022-12-18T07:22:24;10.00;;;6.30;;
61317;SDS011;47201;40.428;-8.436;2022-12-18T07:24:26;9.13;;;3.72;;
61317;SDS011;47201;40.428;-8.436;2022-12-18T07:26:26;10.85;;;4.30;;
61317;SDS011;47201;40.428;-8.436;2022-12-18T07:28:27;7.80;;;3.83;;
61317;SDS011;47201;40.428;-8.436;2022-12-18T07:30:28;6.38;;;4.00;;
61317;SDS011;47201;40.428;-8.436;2022-12-18T07:32:30;9.15;;;4.80;;
61317;SDS011;47201;40.428;-8.436;2022-12-18T07:34:30;3.90;;;3.58;;
61317;SDS011;47201;40.428;-8.436;2022-12-18T07:36:31;11.73;;;5.88;;
61317;SDS011;47201;40.428;-8.436;2022-12-18T07:38:32;9.70;;;5.07;;
61317;SDS011;47201;40.428;-8.436;2022-12-18T07:40:35;7.25;;;4.10;;
61317;SDS011;47201;40.428;-8.436;2022-12-18T07:42:35;9.00;;;5.70;;
61317;SDS011;47201;40.428;-8.436;2022-12-18T07:46:40;6.97;;;3.80;;
61317;SDS011;47201;40.428;-8.436;2022-12-18T07:48:44;7.15;;;4.18;;
61317;SDS011;47201;40.428;-8.436;2022-12-18T07:50:45;9.18;;;5.07;;
61317;SDS011;47201;40.428;-8.436;2022-12-18T07:52:45;6.40;;;3.92;;
61317;SDS011;47201;40.428;-8.436;2022-12-18T07:54:46;7.63;;;4.00;;
61317;SDS011;47201;40.428;-8.436;2022-12-18T07:56:50;9.48;;;5.00;;
61317;SDS011;47201;40.428;-8.436;2022-12-18T07:58:51;11.35;;;5.60;;
61317;SDS011;47201;40.428;-8.436;2022-12-18T08:00:52;6.53;;;3.75;;
61317;SDS011;47201;40.428;-8.436;2022-12-18T08:02:53;6.18;;;4.20;;
61317;SDS011;47201;40.428;-8.436;2022-12-18T08:04:54;6.97;;;4.55;;
61317;SDS011;47201;40.428;-8.436;2022-12-18T08:06:54;14.77;;;6.28;;
61317;SDS011;47201;40.428;-8.436;2022-12-18T08:08:55;7.00;;;4.57;;
61317;SDS011;47201;40.428;-8.436;2022-12-18T08:10:56;11.70;;;5.18;;
61317;SDS011;47201;40.428;-8.436;2022-12-18T08:12:57;7.30;;;4.50;;
61317;SDS011;47201;40.428;-8.436;2022-12-18T08:14:58;8.52;;;5.35;;
61317;SDS011;47201;40.428;-8.436;2022-12-18T08:16:58;8.73;;;4.80;;
61317;SDS011;47201;40.428;-8.436;2022-12-18T08:18:59;8.07;;;5.10;;
61317;SDS011;47201;40.428;-8.436;2022-12-18T08:21:10;7.55;;;5.03;;
61317;SDS011;47201;40.428;-8.436;2022-12-18T08:23:12;12.40;;;6.38;;
61317;SDS011;47201;40.428;-8.436;2022-12-18T08:25:13;10.57;;;5.07;;
61317;SDS011;47201;40.428;-8.436;2022-12-18T08:27:13;10.70;;;6.47;;
61317;SDS011;47201;40.428;-8.436;2022-12-18T08:29:14;8.05;;;5.05;;
61317;SDS011;47201;40.428;-8.436;2022-12-18T08:31:15;7.00;;;5.82;;
61317;SDS011;47201;40.428;-8.436;2022-12-18T08:33:16;6.65;;;4.80;;
61317;SDS011;47201;40.428;-8.436;2022-12-18T08:35:17;11.50;;;5.78;;
61317;SDS011;47201;40.428;-8.436;2022-12-18T08:37:17;11.52;;;7.95;;
61317;SDS011;47201;40.428;-8.436;2022-12-18T08:39:18;11.10;;;5.43;;
61317;SDS011;47201;40.428;-8.436;2022-12-18T08:41:19;10.23;;;5.50;;
61317;SDS011;47201;40.428;-8.436;2022-12-18T08:43:20;10.25;;;6.40;;
61317;SDS011;47201;40.428;-8.436;2022-12-18T08:45:39;13.63;;;7.38;;
61317;SDS011;47201;40.428;-8.436;2022-12-18T08:47:40;7.32;;;5.25;;
61317;SDS011;47201;40.428;-8.436;2022-12-18T08:49:40;7.95;;;5.53;;
61317;SDS011;47201;40.428;-8.436;2022-12-18T08:51:41;11.98;;;8.57;;
61317;SDS011;47201;40.428;-8.436;2022-12-18T08:53:42;6.88;;;5.85;;
61317;SDS011;47201;40.428;-8.436;2022-12-18T08:55:43;11.02;;;6.18;;
61317;SDS011;47201;40.428;-8.436;2022-12-18T08:57:47;12.50;;;5.40;;
61317;SDS011;47201;40.428;-8.436;2022-12-18T08:59:49;10.27;;;5.40;;
61317;SDS011;47201;40.428;-8.436;2022-12-18T09:01:50;7.53;;;5.95;;
61317;SDS011;47201;40.428;-8.436;2022-12-18T09:03:50;8.13;;;5.38;;
61317;SDS011;47201;40.428;-8.436;2022-12-18T09:05:51;6.32;;;5.03;;
61317;SDS011;47201;40.428;-8.436;2022-12-18T09:07:52;10.75;;;6.82;;
61317;SDS011;47201;40.428;-8.436;2022-12-18T09:09:52;8.32;;;4.95;;
61317;SDS011;47201;40.428;-8.436;2022-12-18T09:11:53;12.00;;;4.78;;
61317;SDS011;47201;40.428;-8.436;2022-12-18T09:13:54;7.38;;;5.07;;
61317;SDS011;47201;40.428;-8.436;2022-12-18T09:17:56;13.37;;;6.50;;
61317;SDS011;47201;40.428;-8.436;2022-12-18T09:19:56;4.30;;;3.90;;
61317;SDS011;47201;40.428;-8.436;2022-12-18T09:21:57;7.95;;;5.85;;
61317;SDS011;47201;40.428;-8.436;2022-12-18T09:23:58;9.32;;;5.00;;
61317;SDS011;47201;40.428;-8.436;2022-12-18T09:26:00;4.22;;;3.75;;
61317;SDS011;47201;40.428;-8.436;2022-12-18T09:28:11;8.15;;;5.47;;
61317;SDS011;47201;40.428;-8.436;2022-12-18T09:30:13;11.70;;;5.15;;
61317;SDS011;47201;40.428;-8.436;2022-12-18T09:32:14;5.72;;;3.78;;
61317;SDS011;47201;40.428;-8.436;2022-12-18T09:34:15;7.22;;;5.10;;
61317;SDS011;47201;40.428;-8.436;2022-12-18T09:36:17;6.45;;;4.43;;
61317;SDS011;47201;40.428;-8.436;2022-12-18T09:38:19;5.55;;;3.72;;
61317;SDS011;47201;40.428;-8.436;2022-12-18T09:40:21;4.00;;;3.58;;
61317;SDS011;47201;40.428;-8.436;2022-12-18T09:42:24;6.43;;;4.43;;
61317;SDS011;47201;40.428;-8.436;2022-12-18T09:46:30;8.40;;;4.50;;
61317;SDS011;47201;40.428;-8.436;2022-12-18T09:48:36;8.73;;;4.55;;
61317;SDS011;47201;40.428;-8.436;2022-12-18T09:50:41;6.10;;;3.88;;
61317;SDS011;47201;40.428;-8.436;2022-12-18T09:52:47;7.60;;;4.28;;
61317;SDS011;47201;40.428;-8.436;2022-12-18T09:55:35;9.18;;;4.13;;
61317;SDS011;47201;40.428;-8.436;2022-12-18T09:57:28;8.48;;;4.30;;
61317;SDS011;47201;40.428;-8.436;2022-12-18T09:59:35;8.68;;;4.28;;
61317;SDS011;47201;40.428;-8.436;2022-12-18T10:01:39;5.03;;;4.40;;
61317;SDS011;47201;40.428;-8.436;2022-12-18T10:03:40;6.32;;;4.00;;
61317;SDS011;47201;40.428;-8.436;2022-12-18T10:08:03;8.23;;;4.85;;
61317;SDS011;47201;40.428;-8.436;2022-12-18T10:10:26;6.18;;;4.20;;
61317;SDS011;47201;40.428;-8.436;2022-12-18T10:12:35;6.55;;;4.20;;
61317;SDS011;47201;40.428;-8.436;2022-12-18T10:21:09;7.00;;;3.60;;
61317;SDS011;47201;40.428;-8.436;2022-12-18T10:25:50;7.00;;;3.63;;
61317;SDS011;47201;40.428;-8.436;2022-12-18T10:28:07;5.15;;;3.20;;
61317;SDS011;47201;40.428;-8.436;2022-12-18T10:30:13;8.00;;;3.30;;
61317;SDS011;47201;40.428;-8.436;2022-12-18T10:32:16;6.55;;;3.00;;
61317;SDS011;47201;40.428;-8.436;2022-12-18T10:34:38;5.20;;;2.53;;
61317;SDS011;47201;40.428;-8.436;2022-12-18T10:38:39;8.87;;;2.10;;
61317;SDS011;47201;40.428;-8.436;2022-12-18T10:45:28;7.35;;;2.20;;
61317;SDS011;47201;40.428;-8.436;2022-12-18T10:49:30;5.10;;;1.60;;
61317;SDS011;47201;40.428;-8.436;2022-12-18T10:51:33;5.53;;;1.88;;
61317;SDS011;47201;40.428;-8.436;2022-12-18T10:53:40;5.00;;;1.50;;
61317;SDS011;47201;40.428;-8.436;2022-12-18T10:55:44;5.55;;;1.70;;
61317;SDS011;47201;40.428;-8.436;2022-12-18T10:57:46;5.32;;;1.75;;
61317;SDS011;47201;40.428;-8.436;2022-12-18T11:02:01;4.18;;;1.80;;
61317;SDS011;47201;40.428;-8.436;2022-12-18T11:04:04;4.78;;;1.70;;
61317;SDS011;47201;40.428;-8.436;2022-12-18T11:06:13;6.75;;;1.52;;
61317;SDS011;47201;40.428;-8.436;2022-12-18T11:08:20;3.13;;;1.60;;
61317;SDS011;47201;40.428;-8.436;2022-12-18T11:10:31;4.55;;;1.50;;
61317;SDS011;47201;40.428;-8.436;2022-12-18T11:12:35;7.13;;;1.55;;
61317;SDS011;47201;40.428;-8.436;2022-12-18T11:14:43;4.35;;;1.50;;
61317;SDS011;47201;40.428;-8.436;2022-12-18T11:20:50;5.95;;;1.70;;
61317;SDS011;47201;40.428;-8.436;2022-12-18T11:22:58;2.72;;;1.02;;
61317;SDS011;47201;40.428;-8.436;2022-12-18T11:27:19;5.18;;;1.52;;
61317;SDS011;47201;40.428;-8.436;2022-12-18T11:29:23;3.80;;;1.20;;
61317;SDS011;47201;40.428;-8.436;2022-12-18T11:31:29;3.20;;;1.20;;
61317;SDS011;47201;40.428;-8.436;2022-12-18T11:33:31;2.50;;;1.48;;
61317;SDS011;47201;40.428;-8.436;2022-12-18T11:37:36;3.40;;;1.52;;
61317;SDS011;47201;40.428;-8.436;2022-12-18T11:39:46;5.38;;;1.40;;
61317;SDS011;47201;40.428;-8.436;2022-12-18T11:42:01;6.22;;;1.52;;
61317;SDS011;47201;40.428;-8.436;2022-12-18T11:44:11;3.75;;;1.45;;
61317;SDS011;47201;40.428;-8.436;2022-12-18T11:46:19;2.53;;;1.30;;
61317;SDS011;47201;40.428;-8.436;2022-12-18T11:48:37;1.67;;;1.30;;
61317;SDS011;47201;40.428;-8.436;2022-12-18T11:50:44;3.67;;;1.25;;
61317;SDS011;47201;40.428;-8.436;2022-12-18T11:52:47;2.65;;;1.30;;
61317;SDS011;47201;40.428;-8.436;2022-12-18T11:54:50;6.68;;;1.33;;
61317;SDS011;47201;40.428;-8.436;2022-12-18T11:56:56;7.53;;;1.60;;
61317;SDS011;47201;40.428;-8.436;2022-12-18T11:59:23;4.13;;;1.65;;
61317;SDS011;47201;40.428;-8.436;2022-12-18T12:01:39;2.80;;;1.40;;
61317;SDS011;47201;40.428;-8.436;2022-12-18T12:08:27;7.45;;;1.52;;
61317;SDS011;47201;40.428;-8.436;2022-12-18T12:11:02;3.67;;;1.35;;
61317;SDS011;47201;40.428;-8.436;2022-12-18T12:18:36;1.80;;;1.10;;
61317;SDS011;47201;40.428;-8.436;2022-12-18T12:20:50;2.20;;;1.35;;
61317;SDS011;47201;40.428;-8.436;2022-12-18T12:23:02;3.42;;;1.80;;
61317;SDS011;47201;40.428;-8.436;2022-12-18T12:25:21;8.02;;;1.55;;
61317;SDS011;47201;40.428;-8.436;2022-12-18T12:39:20;4.53;;;1.80;;
61317;SDS011;47201;40.428;-8.436;2022-12-18T12:41:27;2.17;;;1.65;;
61317;SDS011;47201;40.428;-8.436;2022-12-18T12:43:51;4.45;;;1.90;;
61317;SDS011;47201;40.428;-8.436;2022-12-18T12:45:57;4.82;;;1.70;;
61317;SDS011;47201;40.428;-8.436;2022-12-18T12:48:17;7.20;;;1.92;;
61317;SDS011;47201;40.428;-8.436;2022-12-18T12:50:22;4.43;;;2.20;;
61317;SDS011;47201;40.428;-8.436;2022-12-18T12:52:27;3.50;;;2.08;;
61317;SDS011;47201;40.428;-8.436;2022-12-18T12:54:29;3.83;;;2.15;;
61317;SDS011;47201;40.428;-8.436;2022-12-18T12:59:02;6.05;;;2.25;;
61317;SDS011;47201;40.428;-8.436;2022-12-18T13:03:34;4.22;;;2.10;;
61317;SDS011;47201;40.428;-8.436;2022-12-18T13:05:54;3.90;;;2.30;;
61317;SDS011;47201;40.428;-8.436;2022-12-18T13:08:04;3.75;;;2.25;;
61317;SDS011;47201;40.428;-8.436;2022-12-18T13:12:19;3.28;;;1.58;;
61317;SDS011;47201;40.428;-8.436;2022-12-18T13:14:39;2.17;;;1.95;;
61317;SDS011;47201;40.428;-8.436;2022-12-18T13:16:41;3.05;;;2.20;;
61317;SDS011;47201;40.428;-8.436;2022-12-18T13:18:47;3.25;;;2.17;;
61317;SDS011;47201;40.428;-8.436;2022-12-18T13:20:51;4.50;;;1.90;;
61317;SDS011;47201;40.428;-8.436;2022-12-18T13:25:37;3.13;;;1.40;;
61317;SDS011;47201;40.428;-8.436;2022-12-18T13:29:47;2.75;;;1.55;;
61317;SDS011;47201;40.428;-8.436;2022-12-18T13:33:48;4.28;;;1.40;;
61317;SDS011;47201;40.428;-8.436;2022-12-18T13:38:33;4.65;;;1.13;;
61317;SDS011;47201;40.428;-8.436;2022-12-18T13:42:39;6.80;;;1.48;;
61317;SDS011;47201;40.428;-8.436;2022-12-18T13:44:59;1.23;;;0.93;;
61317;SDS011;47201;40.428;-8.436;2022-12-18T13:47:01;1.33;;;1.00;;
61317;SDS011;47201;40.428;-8.436;2022-12-18T13:51:10;5.35;;;1.33;;
61317;SDS011;47201;40.428;-8.436;2022-12-18T13:55:20;5.07;;;1.27;;
61317;SDS011;47201;40.428;-8.436;2022-12-18T13:57:35;1.85;;;0.70;;
61317;SDS011;47201;40.428;-8.436;2022-12-18T13:59:40;10.77;;;1.25;;
61317;SDS011;47201;40.428;-8.436;2022-12-18T14:01:57;2.38;;;0.63;;
61317;SDS011;47201;40.428;-8.436;2022-12-18T14:04:16;4.43;;;0.88;;
61317;SDS011;47201;40.428;-8.436;2022-12-18T14:06:20;2.33;;;0.80;;
61317;SDS011;47201;40.428;-8.436;2022-12-18T14:08:20;4.80;;;1.20;;
61317;SDS011;47201;40.428;-8.436;2022-12-18T14:10:21;4.78;;;1.50;;
61317;SDS011;47201;40.428;-8.436;2022-12-18T14:12:24;3.03;;;0.95;;
61317;SDS011;47201;40.428;-8.436;2022-12-18T14:14:49;2.72;;;0.70;;
61317;SDS011;47201;40.428;-8.436;2022-12-18T14:16:52;5.10;;;0.98;;
61317;SDS011;47201;40.428;-8.436;2022-12-18T14:18:56;0.60;;;0.60;;
61317;SDS011;47201;40.428;-8.436;2022-12-18T14:20:58;1.70;;;0.93;;
61317;SDS011;47201;40.428;-8.436;2022-12-18T14:23:01;2.80;;;0.80;;
61317;SDS011;47201;40.428;-8.436;2022-12-18T14:25:13;2.95;;;0.80;;
61317;SDS011;47201;40.428;-8.436;2022-12-18T14:27:22;2.55;;;0.85;;